METAR Data
IDs: Format: Raw Decoded Include TAF

Data at: 1513 UTC 18 Aug 2019

PADQ 181453Z 29008KT 10SM CLR 16/03 A3005 RMK AO2 SLP175 T01610033 55010 $
PADQ 181353Z AUTO 30009G14KT 10SM CLR 17/04 A3005 RMK AO2 SLP174 T01670039 TSNO $
PADQ 181253Z AUTO 30010G19KT 10SM CLR 18/03 A3006 RMK AO2 SLP178 T01780033 TSNO $
PADQ 181153Z AUTO 30013KT 10SM CLR 17/04 A3008 RMK AO2 SLP185 T01720039 10189 20167 58007 TSNO $
PADQ 181053Z AUTO 31009KT 10SM CLR 17/04 A3009 RMK AO2 SLP188 T01670039 TSNO $
PADQ 180953Z AUTO VRB05KT 10SM CLR 17/03 A3009 RMK AO2 SLP190 T01720033 TSNO $
PADQ 180853Z AUTO 30008KT 10SM CLR 17/03 A3010 RMK AO2 SLP192 T01720033 402330172 56012 TSNO $
PADQ 180753Z AUTO 31011KT 10SM CLR 18/03 A3011 RMK AO2 SLP197 T01780033 TSNO $
PADQ 180653Z AUTO 31014KT 10SM CLR 18/04 A3012 RMK AO2 SLP199 T01780039 TSNO $
PADQ 180553Z AUTO 29012G23KT 10SM CLR 19/03 A3014 RMK AO2 SLP204 T01890033 10228 20189 58007 TSNO $
PADQ 180453Z AUTO 30011KT 10SM CLR 20/02 A3015 RMK AO2 SLP208 T02000022 TSNO $
PADQ 180353Z AUTO 29009KT 10SM CLR 21/02 A3016 RMK AO2 SLP212 T02110022 TSNO $
PADQ 180253Z AUTO 32012G17KT 10SM CLR 22/03 A3016 RMK AO2 PK WND 30036/0200 SLP211 T02170028 53006 TSNO $
PADQ 180153Z 31016G28KT 10SM CLR 22/02 A3014 RMK AO2 PK WND 31028/0147 SLP206 T02220017 $
PADQ 180053Z 32016G24KT 10SM CLR 23/03 A3013 RMK AO2 PK WND 28031/2358 SLP204 T02280033 $
PADQ 172353Z 29021G29KT 10SM CLR 22/03 A3014 RMK AO2 PK WND 28030/2307 SLP205 T02220028 10233 20217 58005 $
PADQ 172253Z 29016G28KT 10SM CLR 23/03 A3016 RMK AO2 PK WND 27028/2251 SLP212 T02280028 $
PADQ 172153Z 32017G26KT 10SM CLR 23/04 A3015 RMK AO2 PK WND 28027/2116 SLP211 T02330044 $
PADQ 172053Z 30013G23KT 10SM CLR 23/06 A3015 RMK AO2 SLP210 T02280056 50009 $
PADQ 171953Z 31012G23KT 10SM CLR 23/06 A3015 RMK AO2 SLP211 T02280061 $
PADQ 171853Z 29016G22KT 10SM CLR 22/07 A3014 RMK AO2 SLP207 T02220067 $
PADQ 171753Z 29017G25KT 10SM CLR 22/08 A3012 RMK AO2 PK WND 27029/1741 SLP201 T02170078 10222 20206 50011 $
PADQ 171653Z 32009G17KT 290V020 10SM CLR 21/09 A3013 RMK AO2 SLP204 T02110094 $
PADQ 171553Z 29012KT 10SM CLR 21/09 A3011 RMK AO2 PK WND 30027/1522 SLP195 T02060094 $
PADQ 171453Z AUTO 29015G22KT 10SM CLR 21/10 A3009 RMK AO2 PRESFR SLP190 T02110100 58010 TSNO
PADQ 171353Z AUTO 28013G22KT 10SM CLR 21/10 A3010 RMK AO2 SLP194 T02110100 TSNO
PADQ 171253Z AUTO 30015KT 10SM CLR 21/10 A3011 RMK AO2 PK WND 29026/1216 SLP197 T02110100 TSNO
PADQ 171153Z AUTO 30011G17KT 10SM CLR 21/09 A3012 RMK AO2 SLP200 T02110089 10233 20211 58008 TSNO
PADQ 171053Z AUTO 30016G22KT 10SM CLR 21/08 A3014 RMK AO2 PK WND 31028/0958 SLP206 T02110078 TSNO
PADQ 170953Z AUTO 30018G26KT 10SM CLR 22/08 A3014 RMK AO2 PK WND 29026/0952 SLP206 T02170078 TSNO
PADQ 170853Z AUTO 29019G27KT 10SM CLR 22/09 A3014 RMK AO2 PK WND 29027/0845 SLP207 T02170089 403000156 56010 TSNO
PADQ 170753Z AUTO 30016G25KT 10SM CLR 22/08 A3016 RMK AO2 SLP212 T02220083 TSNO
PADQ 170653Z AUTO 30015G20KT 10SM CLR 23/07 A3016 RMK AO2 SLP212 T02330072 TSNO
PADQ 170553Z AUTO 29009KT 10SM CLR 23/08 A3018 RMK AO2 SLP218 T02330078 10294 20233 58013 TSNO
PADQ 170453Z AUTO 29004KT 10SM CLR 24/09 A3019 RMK AO2 SLP223 T02390089 TSNO
PADQ 170353Z AUTO 25010KT 10SM CLR 26/09 A3021 RMK AO2 SLP229 T02560094 TSNO